Terminal Aerodrome Forecast
Issued by NWS

Home | Current Version | Previous Version | Text Only | Print | Product List | Glossary On
Versions: 1 2 3 4 5 6 7 8 9 10 11 12 13 14 15 16 17 18 19 20 21 22 23 24 25 26 27 28 29 30 31 32 33 34
606
FTUS41 KOKX 171740
TAFTEB
TAF
KTEB 171740Z 1718/1818 31014G24KT P6SM SCT040
     FM172000 29013G20KT P6SM FEW250
     FM172200 29006KT P6SM FEW250
     FM180200 VRB03KT P6SM FEW250
     FM181500 19008KT P6SM BKN140
     FM181700 20010G18KT P6SM SCT070 BKN120=

USA.gov is the U.S. government's official web portal to all federal, state and local government web resources and services.